createdAt,value
2024-02-04T00:01:18.437Z,82.09
2024-02-04T00:04:12.892Z,82.08
2024-02-04T00:07:07.643Z,82.11
2024-02-04T00:10:02.091Z,82.20
2024-02-04T00:12:57.301Z,82.25
2024-02-04T00:15:55.544Z,82.26
2024-02-04T00:18:50.752Z,82.29
2024-02-04T00:21:45.064Z,82.43
2024-02-04T00:24:39.291Z,82.42
2024-02-04T00:27:33.705Z,82.47
2024-02-04T00:30:28.249Z,82.43
2024-02-04T00:33:22.521Z,82.43
2024-02-04T00:36:18.891Z,82.43
2024-02-04T00:39:12.855Z,82.40
2024-02-04T00:42:07.769Z,82.40
2024-02-04T00:45:02.291Z,82.40
2024-02-04T00:47:56.525Z,82.46
2024-02-04T00:50:51.189Z,82.48
2024-02-04T00:53:45.682Z,82.40
2024-02-04T00:56:40.569Z,82.32
2024-02-04T00:59:34.811Z,82.27
2024-02-04T01:02:29.200Z,82.20
2024-02-04T01:05:24.032Z,82.24
2024-02-04T01:08:18.232Z,82.30
2024-02-04T01:11:12.752Z,82.37
2024-02-04T01:14:06.953Z,82.49
2024-02-04T01:17:01.396Z,82.61
2024-02-04T01:19:55.846Z,82.70
2024-02-04T01:22:50.854Z,82.81
2024-02-04T01:25:45.417Z,82.94
2024-02-04T01:28:40.379Z,83.07
2024-02-04T01:31:34.853Z,83.18
2024-02-04T01:34:29.097Z,83.26
2024-02-04T01:37:23.522Z,83.32
2024-02-04T01:40:18.579Z,83.36
2024-02-04T01:43:12.974Z,83.48
2024-02-04T01:46:09.288Z,83.57
2024-02-04T01:49:05.514Z,83.60
2024-02-04T01:52:02.081Z,83.60
2024-02-04T01:54:57.002Z,83.72
2024-02-04T01:57:53.392Z,83.73
2024-02-04T02:00:50.733Z,83.80
2024-02-04T02:03:45.120Z,83.81
2024-02-04T02:06:43.552Z,83.90
2024-02-04T02:09:38.164Z,83.90
2024-02-04T02:12:42.321Z,83.90
2024-02-04T02:15:43.177Z,83.91
2024-02-04T02:18:46.348Z,83.89
2024-02-04T02:21:59.084Z,83.87
2024-02-04T02:24:57.187Z,83.85
2024-02-04T02:27:55.186Z,83.92
2024-02-04T02:30:50.049Z,83.99
2024-02-04T02:33:44.502Z,84.03
2024-02-04T02:36:47.171Z,84.10
2024-02-04T02:39:52.350Z,84.14
2024-02-04T02:42:50.146Z,84.20
2024-02-04T02:45:46.700Z,84.28
2024-02-04T02:48:41.912Z,84.30
2024-02-04T02:51:36.695Z,84.30
2024-02-04T02:54:31.204Z,84.27
2024-02-04T02:57:25.497Z,84.29
2024-02-04T03:00:21.268Z,84.30
2024-02-04T03:03:15.567Z,84.29
2024-02-04T03:06:10.865Z,84.26
2024-02-04T03:09:05.362Z,84.26
2024-02-04T03:11:59.721Z,84.24
2024-02-04T03:14:54.204Z,84.20
2024-02-04T03:17:49.763Z,84.10
2024-02-04T03:20:44.172Z,83.92
2024-02-04T03:23:38.557Z,83.70
2024-02-04T03:26:33.651Z,83.51
2024-02-04T03:29:29.299Z,83.34
2024-02-04T03:32:23.629Z,83.18
2024-02-04T03:35:18.725Z,82.94
2024-02-04T03:38:13.741Z,82.52
2024-02-04T03:41:08.333Z,82.29
2024-02-04T03:44:02.647Z,82.17
2024-02-04T03:46:57.232Z,81.95
2024-02-04T03:49:51.751Z,81.79
2024-02-04T03:52:46.114Z,81.58
2024-02-04T03:55:40.883Z,81.47
2024-02-04T03:58:36.691Z,81.29
2024-02-04T04:01:31.753Z,81.00
2024-02-04T04:04:28.045Z,80.87
2024-02-04T04:07:23.309Z,80.86
2024-02-04T04:10:17.599Z,80.42
2024-02-04T04:13:11.789Z,80.38
2024-02-04T04:16:07.031Z,80.41
2024-02-04T04:19:01.480Z,80.22
2024-02-04T04:21:56.055Z,80.07
2024-02-04T04:24:50.214Z,80.06
2024-02-04T04:27:44.975Z,79.93
2024-02-04T04:30:39.296Z,79.77
2024-02-04T04:33:33.968Z,79.72
2024-02-04T04:36:28.355Z,79.83
2024-02-04T04:39:22.233Z,79.92
2024-02-04T04:42:16.606Z,79.93
2024-02-04T04:45:12.814Z,79.84
2024-02-04T04:48:09.221Z,79.90
2024-02-04T04:51:03.316Z,79.90
2024-02-04T04:53:57.726Z,79.90
2024-02-04T04:56:52.229Z,79.88
2024-02-04T04:59:46.914Z,79.64
2024-02-04T05:02:44.118Z,79.56
2024-02-04T05:05:38.423Z,79.56
2024-02-04T05:08:32.974Z,79.59
2024-02-04T05:11:27.401Z,79.63
2024-02-04T05:14:21.456Z,79.60
2024-02-04T05:17:15.775Z,79.59
2024-02-04T05:20:12.462Z,79.64
2024-02-04T05:23:07.314Z,79.69
2024-02-04T05:26:04.622Z,79.61
2024-02-04T05:28:58.968Z,79.52
2024-02-04T05:31:53.414Z,79.51
2024-02-04T05:34:47.865Z,79.57
2024-02-04T05:37:42.564Z,79.61
2024-02-04T05:40:36.757Z,79.70
2024-02-04T05:43:31.416Z,79.71
2024-02-04T05:46:25.540Z,79.78
2024-02-04T05:49:20.416Z,79.90
2024-02-04T05:52:14.961Z,79.95
2024-02-04T05:55:12.583Z,80.02
2024-02-04T05:58:07.169Z,80.20
2024-02-04T06:01:01.161Z,80.19
2024-02-04T06:03:55.544Z,79.98
2024-02-04T06:06:50.385Z,79.47
2024-02-04T06:09:44.670Z,78.93
2024-02-04T06:12:42.012Z,78.60
2024-02-04T06:15:37.434Z,78.30
2024-02-04T06:18:31.925Z,78.04
2024-02-04T06:21:26.183Z,77.94
2024-02-04T06:24:21.597Z,77.89
2024-02-04T06:27:16.456Z,78.00
2024-02-04T06:30:13.193Z,78.02
2024-02-04T06:33:08.683Z,78.10
2024-02-04T06:36:02.941Z,78.19
2024-02-04T06:38:57.654Z,78.23
2024-02-04T06:41:52.001Z,78.51
2024-02-04T06:44:49.208Z,78.51
2024-02-04T06:47:45.440Z,78.12
2024-02-04T06:50:39.847Z,77.59
2024-02-04T06:53:34.669Z,77.84
2024-02-04T06:56:29.062Z,77.53
2024-02-04T06:59:23.361Z,77.03
2024-02-04T07:02:17.277Z,77.08
2024-02-04T07:05:12.743Z,76.54
2024-02-04T07:08:07.549Z,76.02
2024-02-04T07:11:02.214Z,75.73
2024-02-04T07:14:00.300Z,75.33
2024-02-04T07:16:54.729Z,75.17
2024-02-04T07:19:49.982Z,75.07
2024-02-04T07:22:47.115Z,75.02
2024-02-04T07:25:43.412Z,75.28
2024-02-04T07:28:37.614Z,75.76
2024-02-04T07:31:32.132Z,76.21
2024-02-04T07:34:26.261Z,76.52
2024-02-04T07:37:20.798Z,76.41
2024-02-04T07:40:16.231Z,76.17
2024-02-04T07:43:10.429Z,75.48
2024-02-04T07:46:05.745Z,74.81
2024-02-04T07:49:00.573Z,73.12
2024-02-04T07:51:55.436Z,71.18
2024-02-04T07:54:50.091Z,70.61
2024-02-04T07:57:44.380Z,69.57
2024-02-04T08:00:39.296Z,69.04
2024-02-04T08:03:33.979Z,67.95
2024-02-04T08:06:29.174Z,67.67
2024-02-04T08:09:23.799Z,67.96
2024-02-04T08:12:18.240Z,67.97
2024-02-04T08:15:14.137Z,67.41
2024-02-04T08:18:09.141Z,66.71
2024-02-04T08:21:03.491Z,66.32
2024-02-04T08:23:58.109Z,65.36
2024-02-04T08:26:52.500Z,64.71
2024-02-04T08:29:47.346Z,64.49
2024-02-04T08:32:41.341Z,65.15
2024-02-04T08:35:35.543Z,65.07
2024-02-04T08:38:30.113Z,64.85
2024-02-04T08:41:24.762Z,64.93
2024-02-04T08:44:27.087Z,64.97
2024-02-04T08:47:30.077Z,64.20
2024-02-04T08:50:25.551Z,63.92
2024-02-04T08:53:20.338Z,63.78
2024-02-04T08:56:15.682Z,63.89
2024-02-04T08:59:10.792Z,64.27
2024-02-04T09:02:08.689Z,63.84
2024-02-04T09:05:05.897Z,64.31
2024-02-04T09:08:00.551Z,64.01
2024-02-04T09:10:54.819Z,64.46
2024-02-04T09:13:49.294Z,64.62
2024-02-04T09:16:44.781Z,64.81
2024-02-04T09:19:42.652Z,64.41
2024-02-04T09:22:37.820Z,64.46
2024-02-04T09:25:32.081Z,64.56
2024-02-04T09:28:26.682Z,64.59
2024-02-04T09:31:22.336Z,64.68
2024-02-04T09:34:21.038Z,65.12
2024-02-04T09:37:16.686Z,65.38
2024-02-04T09:40:13.961Z,65.36
2024-02-04T09:43:10.389Z,65.71
2024-02-04T09:46:05.995Z,64.97
2024-02-04T09:49:04.200Z,64.84
2024-02-04T09:52:02.622Z,64.87
2024-02-04T09:55:04.944Z,65.14
2024-02-04T09:58:00.548Z,64.41
2024-02-04T10:00:58.967Z,64.11
2024-02-04T10:03:54.903Z,64.41
2024-02-04T10:06:49.694Z,63.87
2024-02-04T10:09:43.860Z,64.42
2024-02-04T10:12:40.214Z,64.32
2024-02-04T10:15:37.823Z,64.88
2024-02-04T10:18:32.249Z,64.79
2024-02-04T10:21:28.129Z,64.59
2024-02-04T10:24:23.990Z,64.62
2024-02-04T10:27:26.582Z,64.77
2024-02-04T10:30:27.253Z,64.23
2024-02-04T10:33:22.847Z,63.42
2024-02-04T10:36:17.662Z,63.40
2024-02-04T10:39:11.986Z,63.16
2024-02-04T10:42:09.961Z,63.89
2024-02-04T10:45:07.697Z,64.98
2024-02-04T10:48:07.583Z,64.73
2024-02-04T10:51:02.392Z,65.48
2024-02-04T10:53:58.326Z,64.91
2024-02-04T10:57:04.233Z,64.99
2024-02-04T11:00:00.052Z,65.03
2024-02-04T11:02:56.341Z,65.21
2024-02-04T11:05:53.761Z,65.73
2024-02-04T11:08:48.624Z,65.54
2024-02-04T11:11:44.157Z,64.98
2024-02-04T11:14:41.166Z,64.38
2024-02-04T11:18:16.570Z,65.23
2024-02-04T11:21:49.398Z,65.21
2024-02-04T11:25:12.001Z,64.69
2024-02-04T11:28:06.981Z,63.35
2024-02-04T11:31:01.715Z,62.37
2024-02-04T11:33:58.792Z,62.07
2024-02-04T11:36:53.684Z,60.77
2024-02-04T11:39:57.202Z,60.37
2024-02-04T11:42:52.239Z,60.27
2024-02-04T11:45:47.812Z,60.48
2024-02-04T11:48:41.948Z,60.21
2024-02-04T11:51:37.297Z,60.58
2024-02-04T11:54:32.763Z,60.55
2024-02-04T11:57:28.816Z,60.03
2024-02-04T12:00:24.907Z,60.28
2024-02-04T12:03:19.307Z,60.33
2024-02-04T12:06:17.990Z,60.62
2024-02-04T12:09:14.129Z,60.67
2024-02-04T12:12:10.360Z,60.38
2024-02-04T12:15:06.821Z,60.90
2024-02-04T12:18:10.374Z,60.92
2024-02-04T12:21:05.478Z,60.77
2024-02-04T12:23:59.969Z,60.74
2024-02-04T12:26:54.808Z,61.06
2024-02-04T12:29:53.256Z,61.39
2024-02-04T12:32:47.360Z,61.75
2024-02-04T12:35:42.659Z,63.54
2024-02-04T12:38:37.643Z,65.19
2024-02-04T12:41:32.560Z,66.29
2024-02-04T12:44:27.280Z,67.03
2024-02-04T12:47:27.605Z,67.54
2024-02-04T12:50:22.408Z,68.04
2024-02-04T12:53:17.125Z,68.94
2024-02-04T12:56:12.678Z,69.86
2024-02-04T12:59:07.010Z,70.62
2024-02-04T13:02:06.548Z,71.52
2024-02-04T13:05:01.710Z,72.43
2024-02-04T13:08:03.591Z,73.09
2024-02-04T13:11:01.390Z,73.86
2024-02-04T13:13:55.574Z,74.38
2024-02-04T13:16:50.173Z,74.57
2024-02-04T13:19:45.926Z,74.96
2024-02-04T13:22:40.129Z,75.39
2024-02-04T13:25:34.865Z,75.60
2024-02-04T13:28:29.370Z,75.86
2024-02-04T13:31:24.329Z,76.04
2024-02-04T13:34:21.830Z,76.20
2024-02-04T13:37:16.540Z,76.42
2024-02-04T13:40:14.112Z,76.62
2024-02-04T13:43:09.214Z,76.65
2024-02-04T13:46:03.991Z,76.82
2024-02-04T13:48:58.443Z,76.84
2024-02-04T13:51:52.776Z,76.92
2024-02-04T13:54:46.918Z,77.16
2024-02-04T13:57:41.809Z,77.42
2024-02-04T14:00:36.358Z,77.61
2024-02-04T14:03:31.184Z,77.68
2024-02-04T14:06:25.361Z,77.83
2024-02-04T14:09:19.856Z,77.95
2024-02-04T14:12:15.769Z,78.14
2024-02-04T14:15:13.362Z,78.36
2024-02-04T14:18:09.043Z,78.53
2024-02-04T14:21:16.390Z,78.60
2024-02-04T14:24:13.268Z,78.67
2024-02-04T14:27:08.175Z,78.66
2024-02-04T14:30:03.613Z,78.77
2024-02-04T14:32:58.711Z,78.76
2024-02-04T14:35:53.112Z,78.51
2024-02-04T14:38:47.673Z,78.42
2024-02-04T14:41:42.211Z,78.27
2024-02-04T14:44:36.489Z,78.04
2024-02-04T14:47:30.718Z,77.82
2024-02-04T14:50:27.518Z,77.85
2024-02-04T14:53:22.977Z,77.80
2024-02-04T14:56:17.704Z,77.73
2024-02-04T14:59:21.867Z,77.75
2024-02-04T15:02:18.127Z,77.85
2024-02-04T15:05:13.240Z,77.98
2024-02-04T15:08:09.345Z,78.08
2024-02-04T15:11:03.708Z,78.00
2024-02-04T15:14:00.500Z,78.05
2024-02-04T15:16:56.993Z,78.15
2024-02-04T15:19:52.769Z,78.20
2024-02-04T15:22:48.503Z,78.24
2024-02-04T15:25:45.163Z,78.35
2024-02-04T15:28:40.498Z,78.38
2024-02-04T15:31:38.499Z,78.39
2024-02-04T15:34:38.115Z,78.42
2024-02-04T15:37:33.207Z,78.45
2024-02-04T15:40:27.440Z,78.49
2024-02-04T15:43:21.941Z,78.51
2024-02-04T15:46:19.841Z,78.57
2024-02-04T15:49:19.633Z,78.60
2024-02-04T15:52:16.981Z,78.72
2024-02-04T15:55:15.965Z,78.66
2024-02-04T15:58:13.493Z,78.61
2024-02-04T16:01:29.257Z,78.71
2024-02-04T16:04:28.594Z,78.78
2024-02-04T16:07:24.836Z,78.81
2024-02-04T16:10:24.978Z,78.71
2024-02-04T16:13:20.181Z,78.68
2024-02-04T16:16:24.741Z,78.55
2024-02-04T16:19:21.676Z,78.37
2024-02-04T16:22:17.179Z,78.29
2024-02-04T16:25:15.267Z,78.32
2024-02-04T16:28:10.708Z,78.27
2024-02-04T16:31:05.694Z,78.16
2024-02-04T16:34:01.432Z,78.21
2024-02-04T16:36:55.958Z,78.32
2024-02-04T16:39:50.024Z,78.46
2024-02-04T16:42:45.500Z,78.52
2024-02-04T16:45:40.446Z,78.52
2024-02-04T16:48:35.239Z,78.55
2024-02-04T16:51:30.193Z,78.59
2024-02-04T16:54:29.774Z,78.60
2024-02-04T16:57:25.222Z,78.63
2024-02-04T17:00:30.488Z,78.71
2024-02-04T17:03:27.803Z,78.84
2024-02-04T17:06:24.579Z,79.00
2024-02-04T17:09:20.779Z,79.18
2024-02-04T17:12:19.225Z,79.38
2024-02-04T17:15:17.220Z,79.39
2024-02-04T17:18:20.002Z,79.46
2024-02-04T17:21:16.459Z,79.37
2024-02-04T17:24:20.959Z,79.19
2024-02-04T17:27:21.914Z,78.94
2024-02-04T17:30:20.925Z,78.69
2024-02-04T17:33:20.006Z,78.39
2024-02-04T17:36:15.835Z,78.20
2024-02-04T17:39:13.233Z,78.01
2024-02-04T17:42:11.983Z,77.99
2024-02-04T17:45:13.554Z,77.76
2024-02-04T17:48:11.043Z,77.68
2024-02-04T17:51:10.588Z,77.39
2024-02-04T17:54:12.716Z,77.20
2024-02-04T17:57:08.064Z,76.73
2024-02-04T18:00:03.253Z,76.43
2024-02-04T18:02:59.234Z,76.10
2024-02-04T18:05:55.772Z,75.96
2024-02-04T18:08:52.473Z,75.61
2024-02-04T18:11:48.710Z,75.43
2024-02-04T18:14:45.637Z,75.29
2024-02-04T18:17:43.899Z,75.19
2024-02-04T18:20:41.357Z,75.31
2024-02-04T18:23:41.378Z,75.54
2024-02-04T18:26:37.365Z,75.77
2024-02-04T18:29:33.382Z,75.97
2024-02-04T18:32:29.619Z,76.03
2024-02-04T18:35:24.947Z,76.04
2024-02-04T18:38:19.904Z,76.07
2024-02-04T18:41:16.178Z,76.13
2024-02-04T18:44:12.498Z,76.09
2024-02-04T18:47:07.291Z,76.03
2024-02-04T18:50:03.025Z,76.06
2024-02-04T18:53:01.277Z,75.87
2024-02-04T18:55:57.573Z,75.72
2024-02-04T18:58:52.847Z,75.43
2024-02-04T19:01:47.785Z,75.34
2024-02-04T19:04:42.444Z,75.25
2024-02-04T19:07:38.358Z,75.00
2024-02-04T19:10:33.484Z,74.85
2024-02-04T19:13:28.493Z,74.70
2024-02-04T19:16:27.042Z,74.72
2024-02-04T19:19:21.987Z,74.62
2024-02-04T19:22:17.209Z,74.45
2024-02-04T19:25:16.488Z,74.28
2024-02-04T19:28:13.468Z,74.13
2024-02-04T19:31:10.538Z,74.05
2024-02-04T19:34:05.575Z,74.05
2024-02-04T19:37:01.008Z,74.11
2024-02-04T19:39:56.406Z,74.02
2024-02-04T19:42:51.644Z,73.91
2024-02-04T19:45:50.956Z,73.82
2024-02-04T19:48:50.357Z,73.57
2024-02-04T19:51:46.922Z,73.56
2024-02-04T19:54:43.081Z,73.48
2024-02-04T19:57:48.802Z,73.68
2024-02-04T20:00:46.766Z,73.61
2024-02-04T20:03:44.699Z,73.55
2024-02-04T20:06:39.706Z,73.99
2024-02-04T20:09:34.524Z,74.27
2024-02-04T20:12:32.705Z,74.39
2024-02-04T20:15:29.678Z,74.48
2024-02-04T20:18:44.017Z,74.66
2024-02-04T20:21:51.187Z,74.92
2024-02-04T20:24:47.726Z,75.00
2024-02-04T20:27:43.722Z,75.09
2024-02-04T20:30:41.112Z,75.03
2024-02-04T20:33:35.796Z,74.55
2024-02-04T20:36:29.993Z,73.97
2024-02-04T20:39:24.937Z,73.47
2024-02-04T20:42:20.037Z,72.73
2024-02-04T20:45:16.898Z,71.74
2024-02-04T20:48:13.098Z,71.55
2024-02-04T20:51:07.805Z,70.68
2024-02-04T20:54:02.786Z,70.30
2024-02-04T20:56:59.203Z,70.51
2024-02-04T20:59:53.547Z,71.21
2024-02-04T21:02:47.880Z,72.46
2024-02-04T21:05:42.416Z,73.19
2024-02-04T21:08:37.094Z,73.98
2024-02-04T21:11:32.062Z,74.17
2024-02-04T21:14:26.298Z,73.39
2024-02-04T21:17:22.610Z,73.81
2024-02-04T21:20:17.449Z,73.96
2024-02-04T21:23:11.662Z,74.33
2024-02-04T21:26:06.107Z,74.67
2024-02-04T21:29:01.470Z,74.98
2024-02-04T21:32:07.586Z,75.31
2024-02-04T21:35:08.735Z,75.36
2024-02-04T21:38:04.549Z,74.89
2024-02-04T21:40:58.619Z,74.67
2024-02-04T21:43:52.866Z,73.55
2024-02-04T21:46:52.244Z,73.38
2024-02-04T21:49:47.793Z,72.98
2024-02-04T21:52:41.825Z,72.56
2024-02-04T21:55:36.517Z,72.54
2024-02-04T21:58:30.657Z,72.82
2024-02-04T22:01:25.242Z,72.90
2024-02-04T22:04:19.637Z,73.01
2024-02-04T22:07:14.109Z,73.22
2024-02-04T22:10:11.215Z,73.50
2024-02-04T22:13:05.392Z,73.89
2024-02-04T22:15:59.534Z,74.34
2024-02-04T22:18:53.859Z,74.83
2024-02-04T22:21:48.250Z,74.56
2024-02-04T22:24:42.579Z,74.76
2024-02-04T22:27:37.091Z,75.05
2024-02-04T22:30:31.675Z,75.38
2024-02-04T22:33:27.793Z,75.91
2024-02-04T22:36:21.795Z,76.41
2024-02-04T22:39:16.153Z,76.84
2024-02-04T22:42:11.004Z,77.26
2024-02-04T22:45:05.392Z,77.58
2024-02-04T22:47:59.493Z,77.94
2024-02-04T22:50:53.824Z,78.17
2024-02-04T22:53:47.531Z,78.36
2024-02-04T22:56:41.908Z,78.58
2024-02-04T22:59:36.365Z,78.79
2024-02-04T23:02:30.687Z,78.68
2024-02-04T23:05:25.164Z,78.66
2024-02-04T23:08:24.119Z,78.76
2024-02-04T23:11:18.378Z,78.86
2024-02-04T23:14:12.574Z,78.80
2024-02-04T23:17:09.729Z,78.84
2024-02-04T23:20:08.027Z,78.97
2024-02-04T23:23:03.052Z,79.01
2024-02-04T23:25:58.858Z,79.09
2024-02-04T23:28:53.228Z,79.17
2024-02-04T23:31:48.001Z,79.19
2024-02-04T23:34:42.340Z,79.25
2024-02-04T23:37:36.513Z,79.43
2024-02-04T23:40:30.538Z,79.48
2024-02-04T23:43:24.397Z,79.46
2024-02-04T23:46:18.635Z,79.64
2024-02-04T23:49:13.681Z,79.75
2024-02-04T23:52:08.676Z,79.87
2024-02-04T23:55:02.592Z,79.93
2024-02-04T23:57:56.823Z,79.95
